Terminal Aerodrome Forecast
Issued by NWS

Home | Current Version | Previous Version | Graphics & Text | Print | Product List | Glossary On
Versions: 1 2 3 4 5 6 7 8 9 10 11 12 13 14 15 16 17 18 19 20
000
FTUS43 KTOP 170534
TAFFOE
TAF
KFOE 170534Z 1706/1806 15011KT P6SM OVC025
     FM170700 16011KT P6SM OVC015
     FM170900 17012KT 6SM -DZ OVC006
      TEMPO 1710/1713 4SM -DZ
     FM171600 18013G22KT P6SM OVC010
     FM171900 19014G25KT P6SM FEW015 SCT250
     FM172300 20006KT P6SM BKN200
     FM180400 32006KT P6SM SCT200=

USA.gov is the U.S. government's official web portal to all federal, state and local government web resources and services.